sensor_id;sensor_type;location;lat;lon;timestamp;pressure;altitude;pressure_sealevel;temperature;humidity
56400;BME280;42298;53.638;9.876;2023-03-22T00:00:55;100699.41;;;12.61;72.37
56400;BME280;42298;53.638;9.876;2023-03-22T00:03:21;100696.00;;;12.64;72.11
56400;BME280;42298;53.638;9.876;2023-03-22T00:05:54;100687.03;;;12.59;71.89
56400;BME280;42298;53.638;9.876;2023-03-22T00:08:24;100688.19;;;12.66;72.34
56400;BME280;42298;53.638;9.876;2023-03-22T00:10:50;100687.88;;;12.76;71.58
56400;BME280;42298;53.638;9.876;2023-03-22T00:13:16;100677.94;;;12.67;71.86
56400;BME280;42298;53.638;9.876;2023-03-22T00:15:42;100698.94;;;12.76;72.00
56400;BME280;42298;53.638;9.876;2023-03-22T00:18:10;100692.09;;;12.74;72.02
56400;BME280;42298;53.638;9.876;2023-03-22T00:20:38;100671.78;;;12.70;71.78
56400;BME280;42298;53.638;9.876;2023-03-22T00:23:11;100663.66;;;12.73;71.25
56400;BME280;42298;53.638;9.876;2023-03-22T00:25:39;100664.31;;;12.70;71.92
56400;BME280;42298;53.638;9.876;2023-03-22T00:28:04;100665.75;;;12.68;71.53
56400;BME280;42298;53.638;9.876;2023-03-22T00:30:31;100674.72;;;12.73;71.91
56400;BME280;42298;53.638;9.876;2023-03-22T00:32:57;100658.94;;;12.65;71.85
56400;BME280;42298;53.638;9.876;2023-03-22T00:35:22;100667.22;;;12.65;71.69
56400;BME280;42298;53.638;9.876;2023-03-22T00:37:47;100659.59;;;12.54;71.64
56400;BME280;42298;53.638;9.876;2023-03-22T00:40:16;100666.59;;;12.60;71.38
56400;BME280;42298;53.638;9.876;2023-03-22T00:42:42;100656.00;;;12.53;71.63
56400;BME280;42298;53.638;9.876;2023-03-22T00:45:10;100652.09;;;12.54;71.89
56400;BME280;42298;53.638;9.876;2023-03-22T00:47:36;100650.31;;;12.41;72.19
56400;BME280;42298;53.638;9.876;2023-03-22T00:50:02;100647.06;;;12.39;72.40
56400;BME280;42298;53.638;9.876;2023-03-22T00:52:27;100659.09;;;12.60;72.22
56400;BME280;42298;53.638;9.876;2023-03-22T00:54:54;100651.28;;;12.62;72.09
56400;BME280;42298;53.638;9.876;2023-03-22T00:57:23;100654.06;;;12.71;72.37
56400;BME280;42298;53.638;9.876;2023-03-22T00:59:49;100636.53;;;12.58;71.98
56400;BME280;42298;53.638;9.876;2023-03-22T01:02:18;100637.78;;;12.69;72.04
56400;BME280;42298;53.638;9.876;2023-03-22T01:04:43;100650.47;;;12.79;71.19
56400;BME280;42298;53.638;9.876;2023-03-22T01:07:14;100645.59;;;12.76;71.45
56400;BME280;42298;53.638;9.876;2023-03-22T01:09:50;100627.88;;;12.85;72.04
56400;BME280;42298;53.638;9.876;2023-03-22T01:12:16;100622.03;;;12.70;71.69
56400;BME280;42298;53.638;9.876;2023-03-22T01:14:42;100639.75;;;12.77;71.53
56400;BME280;42298;53.638;9.876;2023-03-22T01:17:10;100626.44;;;12.79;71.65
56400;BME280;42298;53.638;9.876;2023-03-22T01:19:36;100615.69;;;12.78;71.50
56400;BME280;42298;53.638;9.876;2023-03-22T01:22:04;100609.97;;;12.83;71.85
56400;BME280;42298;53.638;9.876;2023-03-22T01:24:29;100607.09;;;12.79;71.55
56400;BME280;42298;53.638;9.876;2023-03-22T01:26:55;100619.41;;;12.90;70.96
56400;BME280;42298;53.638;9.876;2023-03-22T01:29:23;100601.19;;;12.89;71.11
56400;BME280;42298;53.638;9.876;2023-03-22T01:31:48;100614.41;;;12.84;71.60
56400;BME280;42298;53.638;9.876;2023-03-22T01:34:13;100615.69;;;12.86;71.50
56400;BME280;42298;53.638;9.876;2023-03-22T01:36:39;100601.22;;;12.72;72.10
56400;BME280;42298;53.638;9.876;2023-03-22T01:39:04;100605.97;;;12.72;72.25
56400;BME280;42298;53.638;9.876;2023-03-22T01:41:32;100603.53;;;12.70;72.13
56400;BME280;42298;53.638;9.876;2023-03-22T01:44:14;100592.78;;;12.77;72.11
56400;BME280;42298;53.638;9.876;2023-03-22T01:46:41;100575.41;;;12.60;72.54
56400;BME280;42298;53.638;9.876;2023-03-22T01:49:14;100597.81;;;12.67;72.23
56400;BME280;42298;53.638;9.876;2023-03-22T01:51:42;100590.69;;;12.66;71.79
56400;BME280;42298;53.638;9.876;2023-03-22T01:54:13;100564.66;;;12.67;72.13
56400;BME280;42298;53.638;9.876;2023-03-22T01:56:41;100573.59;;;12.72;71.67
56400;BME280;42298;53.638;9.876;2023-03-22T01:59:08;100572.31;;;12.61;72.41
56400;BME280;42298;53.638;9.876;2023-03-22T02:01:35;100582.22;;;12.71;72.36
56400;BME280;42298;53.638;9.876;2023-03-22T02:06:51;100570.38;;;12.70;72.04
56400;BME280;42298;53.638;9.876;2023-03-22T02:09:23;100564.38;;;12.60;71.68
56400;BME280;42298;53.638;9.876;2023-03-22T02:21:13;100561.56;;;12.77;71.99
56400;BME280;42298;53.638;9.876;2023-03-22T02:40:15;100534.56;;;12.82;71.52
56400;BME280;42298;53.638;9.876;2023-03-22T02:42:57;100528.06;;;12.87;70.94
56400;BME280;42298;53.638;9.876;2023-03-22T02:45:45;100531.28;;;12.89;71.46
56400;BME280;42298;53.638;9.876;2023-03-22T02:48:29;100514.25;;;12.78;71.17
56400;BME280;42298;53.638;9.876;2023-03-22T02:54:01;100524.19;;;12.79;71.48
56400;BME280;42298;53.638;9.876;2023-03-22T02:56:32;100525.97;;;12.84;71.90
56400;BME280;42298;53.638;9.876;2023-03-22T02:59:02;100516.06;;;12.74;71.73
56400;BME280;42298;53.638;9.876;2023-03-22T03:01:52;100520.88;;;12.86;70.99
56400;BME280;42298;53.638;9.876;2023-03-22T03:04:23;100524.97;;;12.88;71.37
56400;BME280;42298;53.638;9.876;2023-03-22T03:06:53;100505.16;;;12.78;71.35
56400;BME280;42298;53.638;9.876;2023-03-22T03:09:22;100518.44;;;12.93;71.06
56400;BME280;42298;53.638;9.876;2023-03-22T03:11:51;100517.28;;;12.94;71.43
56400;BME280;42298;53.638;9.876;2023-03-22T03:14:29;100519.41;;;12.97;70.62
56400;BME280;42298;53.638;9.876;2023-03-22T03:20:00;100498.59;;;12.91;70.45
56400;BME280;42298;53.638;9.876;2023-03-22T03:25:32;100503.31;;;12.90;70.40
56400;BME280;42298;53.638;9.876;2023-03-22T03:28:03;100508.50;;;12.92;70.79
56400;BME280;42298;53.638;9.876;2023-03-22T03:30:46;100505.75;;;12.92;71.06
56400;BME280;42298;53.638;9.876;2023-03-22T03:33:16;100499.31;;;12.79;71.15
56400;BME280;42298;53.638;9.876;2023-03-22T03:35:59;100492.78;;;12.84;71.02
56400;BME280;42298;53.638;9.876;2023-03-22T03:38:29;100487.75;;;12.77;70.77
56400;BME280;42298;53.638;9.876;2023-03-22T03:41:17;100500.56;;;12.90;70.62
56400;BME280;42298;53.638;9.876;2023-03-22T03:43:44;100498.66;;;12.82;71.61
56400;BME280;42298;53.638;9.876;2023-03-22T03:46:11;100471.88;;;12.57;71.30
56400;BME280;42298;53.638;9.876;2023-03-22T03:48:40;100484.50;;;12.84;71.21
56400;BME280;42298;53.638;9.876;2023-03-22T03:51:07;100465.38;;;12.70;71.08
56400;BME280;42298;53.638;9.876;2023-03-22T03:53:33;100495.16;;;13.02;70.74
56400;BME280;42298;53.638;9.876;2023-03-22T03:55:58;100482.31;;;12.98;70.48
56400;BME280;42298;53.638;9.876;2023-03-22T03:58:25;100467.88;;;12.92;70.45
56400;BME280;42298;53.638;9.876;2023-03-22T04:00:50;100500.25;;;13.00;70.60
56400;BME280;42298;53.638;9.876;2023-03-22T04:03:16;100490.81;;;12.93;70.03
56400;BME280;42298;53.638;9.876;2023-03-22T04:05:42;100490.31;;;12.91;70.77
56400;BME280;42298;53.638;9.876;2023-03-22T04:08:08;100478.66;;;12.77;70.69
56400;BME280;42298;53.638;9.876;2023-03-22T04:10:36;100488.59;;;12.78;70.63
56400;BME280;42298;53.638;9.876;2023-03-22T04:13:01;100486.28;;;12.80;70.86
56400;BME280;42298;53.638;9.876;2023-03-22T04:15:28;100472.34;;;12.68;71.15
56400;BME280;42298;53.638;9.876;2023-03-22T04:17:53;100490.53;;;12.77;70.92
56400;BME280;42298;53.638;9.876;2023-03-22T04:20:19;100467.31;;;12.70;71.07
56400;BME280;42298;53.638;9.876;2023-03-22T04:22:45;100468.25;;;12.74;71.10
56400;BME280;42298;53.638;9.876;2023-03-22T04:25:14;100491.31;;;12.86;70.65
56400;BME280;42298;53.638;9.876;2023-03-22T04:27:45;100475.56;;;12.78;70.46
56400;BME280;42298;53.638;9.876;2023-03-22T04:30:15;100458.03;;;12.74;70.78
56400;BME280;42298;53.638;9.876;2023-03-22T04:32:48;100476.34;;;12.87;70.81
56400;BME280;42298;53.638;9.876;2023-03-22T04:35:15;100479.31;;;12.82;70.46
56400;BME280;42298;53.638;9.876;2023-03-22T04:37:41;100463.88;;;12.73;70.69
56400;BME280;42298;53.638;9.876;2023-03-22T04:40:09;100471.19;;;12.77;70.24
56400;BME280;42298;53.638;9.876;2023-03-22T04:42:40;100459.19;;;12.73;70.61
56400;BME280;42298;53.638;9.876;2023-03-22T04:45:09;100472.00;;;12.78;70.25
56400;BME280;42298;53.638;9.876;2023-03-22T04:47:35;100457.53;;;12.72;70.44
56400;BME280;42298;53.638;9.876;2023-03-22T04:50:00;100460.78;;;12.74;69.75
56400;BME280;42298;53.638;9.876;2023-03-22T04:52:25;100465.50;;;12.74;70.34
56400;BME280;42298;53.638;9.876;2023-03-22T04:54:51;100456.41;;;12.73;70.24
56400;BME280;42298;53.638;9.876;2023-03-22T04:57:16;100453.34;;;12.66;70.52
56400;BME280;42298;53.638;9.876;2023-03-22T04:59:41;100466.16;;;12.71;70.30
56400;BME280;42298;53.638;9.876;2023-03-22T05:02:07;100459.34;;;12.68;70.31
56400;BME280;42298;53.638;9.876;2023-03-22T05:04:32;100470.03;;;12.78;69.77
56400;BME280;42298;53.638;9.876;2023-03-22T05:06:57;100458.34;;;12.73;69.87
56400;BME280;42298;53.638;9.876;2023-03-22T05:09:23;100456.09;;;12.66;70.18
56400;BME280;42298;53.638;9.876;2023-03-22T05:11:48;100456.25;;;12.70;70.03
56400;BME280;42298;53.638;9.876;2023-03-22T05:14:13;100458.19;;;12.69;70.42
56400;BME280;42298;53.638;9.876;2023-03-22T05:16:39;100448.47;;;12.63;70.47
56400;BME280;42298;53.638;9.876;2023-03-22T05:19:06;100445.56;;;12.60;70.18
56400;BME280;42298;53.638;9.876;2023-03-22T05:21:38;100452.47;;;12.83;70.01
56400;BME280;42298;53.638;9.876;2023-03-22T05:24:05;100461.84;;;12.90;69.52
56400;BME280;42298;53.638;9.876;2023-03-22T05:26:32;100455.53;;;12.90;69.44
56400;BME280;42298;53.638;9.876;2023-03-22T05:28:58;100466.25;;;12.91;68.91
56400;BME280;42298;53.638;9.876;2023-03-22T05:31:24;100447.63;;;12.71;69.68
56400;BME280;42298;53.638;9.876;2023-03-22T05:33:53;100474.56;;;12.91;69.66
56400;BME280;42298;53.638;9.876;2023-03-22T05:36:19;100462.53;;;12.87;69.57
56400;BME280;42298;53.638;9.876;2023-03-22T05:38:45;100460.09;;;12.86;69.46
56400;BME280;42298;53.638;9.876;2023-03-22T05:41:12;100475.03;;;13.02;69.10
56400;BME280;42298;53.638;9.876;2023-03-22T05:43:37;100465.09;;;12.92;69.68
56400;BME280;42298;53.638;9.876;2023-03-22T05:46:05;100484.75;;;13.08;69.35
56400;BME280;42298;53.638;9.876;2023-03-22T05:48:32;100470.31;;;12.94;69.12
56400;BME280;42298;53.638;9.876;2023-03-22T05:50:58;100482.50;;;13.01;69.14
56400;BME280;42298;53.638;9.876;2023-03-22T05:53:23;100458.31;;;12.90;69.57
56400;BME280;42298;53.638;9.876;2023-03-22T05:55:51;100475.16;;;13.05;69.67
56400;BME280;42298;53.638;9.876;2023-03-22T05:58:17;100462.81;;;13.03;68.70
56400;BME280;42298;53.638;9.876;2023-03-22T06:00:44;100466.19;;;13.08;68.91
56400;BME280;42298;53.638;9.876;2023-03-22T06:03:14;100473.38;;;13.09;69.09
56400;BME280;42298;53.638;9.876;2023-03-22T06:05:40;100467.16;;;13.12;68.86
56400;BME280;42298;53.638;9.876;2023-03-22T06:08:05;100447.66;;;13.09;68.92
56400;BME280;42298;53.638;9.876;2023-03-22T06:10:31;100448.38;;;13.26;68.42
56400;BME280;42298;53.638;9.876;2023-03-22T06:12:56;100456.00;;;13.29;67.60
56400;BME280;42298;53.638;9.876;2023-03-22T06:15:22;100450.47;;;13.29;67.87
56400;BME280;42298;53.638;9.876;2023-03-22T06:17:48;100444.25;;;13.32;67.91
56400;BME280;42298;53.638;9.876;2023-03-22T06:20:14;100438.78;;;13.24;68.24
56400;BME280;42298;53.638;9.876;2023-03-22T06:22:40;100452.28;;;13.25;68.46
56400;BME280;42298;53.638;9.876;2023-03-22T06:25:08;100456.09;;;13.41;68.02
56400;BME280;42298;53.638;9.876;2023-03-22T06:27:34;100451.69;;;13.40;67.93
56400;BME280;42298;53.638;9.876;2023-03-22T06:29:59;100446.63;;;13.42;67.74
56400;BME280;42298;53.638;9.876;2023-03-22T06:32:26;100452.91;;;13.52;67.68
56400;BME280;42298;53.638;9.876;2023-03-22T06:34:55;100449.97;;;13.57;66.92
56400;BME280;42298;53.638;9.876;2023-03-22T06:37:21;100453.31;;;13.62;67.29
56400;BME280;42298;53.638;9.876;2023-03-22T06:39:47;100450.09;;;13.60;66.61
56400;BME280;42298;53.638;9.876;2023-03-22T06:42:13;100449.63;;;13.58;66.62
56400;BME280;42298;53.638;9.876;2023-03-22T06:44:39;100453.22;;;13.59;67.26
56400;BME280;42298;53.638;9.876;2023-03-22T06:47:10;100466.44;;;13.74;66.52
56400;BME280;42298;53.638;9.876;2023-03-22T06:49:35;100451.31;;;13.71;66.52
56400;BME280;42298;53.638;9.876;2023-03-22T06:52:02;100459.56;;;13.80;66.97
56400;BME280;42298;53.638;9.876;2023-03-22T06:54:28;100465.09;;;13.80;66.78
56400;BME280;42298;53.638;9.876;2023-03-22T06:56:53;100457.91;;;13.79;66.99
56400;BME280;42298;53.638;9.876;2023-03-22T06:59:18;100461.44;;;13.88;66.41
56400;BME280;42298;53.638;9.876;2023-03-22T07:01:45;100455.78;;;13.84;66.31
56400;BME280;42298;53.638;9.876;2023-03-22T07:04:10;100449.56;;;13.87;66.46
56400;BME280;42298;53.638;9.876;2023-03-22T07:06:36;100443.69;;;13.89;66.26
56400;BME280;42298;53.638;9.876;2023-03-22T07:09:01;100448.25;;;14.05;65.43
56400;BME280;42298;53.638;9.876;2023-03-22T07:11:29;100435.72;;;13.87;65.82
56400;BME280;42298;53.638;9.876;2023-03-22T07:13:54;100447.97;;;13.98;66.16
56400;BME280;42298;53.638;9.876;2023-03-22T07:16:20;100440.56;;;14.11;65.53
56400;BME280;42298;53.638;9.876;2023-03-22T07:18:46;100438.72;;;14.15;65.74
56400;BME280;42298;53.638;9.876;2023-03-22T07:21:13;100432.91;;;14.08;65.19
56400;BME280;42298;53.638;9.876;2023-03-22T07:23:40;100428.88;;;14.05;65.25
56400;BME280;42298;53.638;9.876;2023-03-22T07:26:07;100422.56;;;14.17;65.46
56400;BME280;42298;53.638;9.876;2023-03-22T07:28:32;100409.41;;;14.14;64.97
56400;BME280;42298;53.638;9.876;2023-03-22T07:31:02;100409.66;;;14.21;65.00
56400;BME280;42298;53.638;9.876;2023-03-22T07:33:27;100420.72;;;14.21;64.26
56400;BME280;42298;53.638;9.876;2023-03-22T07:35:52;100397.41;;;14.10;65.37
56400;BME280;42298;53.638;9.876;2023-03-22T07:38:18;100405.75;;;14.22;65.32
56400;BME280;42298;53.638;9.876;2023-03-22T07:40:43;100408.94;;;14.12;65.03
56400;BME280;42298;53.638;9.876;2023-03-22T07:43:09;100409.72;;;14.33;65.34
56400;BME280;42298;53.638;9.876;2023-03-22T07:45:37;100408.59;;;14.34;64.78
56400;BME280;42298;53.638;9.876;2023-03-22T07:48:05;100401.53;;;14.36;64.39
56400;BME280;42298;53.638;9.876;2023-03-22T07:50:31;100401.56;;;14.48;64.86
56400;BME280;42298;53.638;9.876;2023-03-22T07:52:57;100388.63;;;14.52;64.84
56400;BME280;42298;53.638;9.876;2023-03-22T07:55:22;100385.03;;;14.52;65.13
56400;BME280;42298;53.638;9.876;2023-03-22T07:57:48;100373.41;;;14.58;65.06
56400;BME280;42298;53.638;9.876;2023-03-22T08:00:13;100370.16;;;14.56;64.77
56400;BME280;42298;53.638;9.876;2023-03-22T08:02:39;100356.88;;;14.50;65.06
56400;BME280;42298;53.638;9.876;2023-03-22T08:05:05;100340.81;;;14.43;64.99
56400;BME280;42298;53.638;9.876;2023-03-22T08:07:31;100346.94;;;14.37;64.99
56400;BME280;42298;53.638;9.876;2023-03-22T08:09:58;100351.09;;;14.55;65.42
56400;BME280;42298;53.638;9.876;2023-03-22T08:12:24;100335.06;;;14.72;64.93
56400;BME280;42298;53.638;9.876;2023-03-22T08:14:52;100330.78;;;14.75;64.85
56400;BME280;42298;53.638;9.876;2023-03-22T08:17:18;100346.50;;;14.83;64.66
56400;BME280;42298;53.638;9.876;2023-03-22T08:19:44;100335.75;;;14.81;64.76
56400;BME280;42298;53.638;9.876;2023-03-22T08:22:10;100338.06;;;14.79;64.63
56400;BME280;42298;53.638;9.876;2023-03-22T08:24:39;100336.88;;;14.92;64.78
56400;BME280;42298;53.638;9.876;2023-03-22T08:27:05;100324.75;;;14.97;64.63
56400;BME280;42298;53.638;9.876;2023-03-22T08:29:30;100316.06;;;15.10;63.98
56400;BME280;42298;53.638;9.876;2023-03-22T08:31:56;100323.31;;;15.15;63.15
56400;BME280;42298;53.638;9.876;2023-03-22T08:34:28;100322.84;;;15.25;63.77
56400;BME280;42298;53.638;9.876;2023-03-22T08:36:56;100316.09;;;15.50;63.43
56400;BME280;42298;53.638;9.876;2023-03-22T08:39:21;100313.53;;;16.00;61.85
56400;BME280;42298;53.638;9.876;2023-03-22T08:41:47;100318.16;;;16.55;61.11
56400;BME280;42298;53.638;9.876;2023-03-22T08:44:13;100286.31;;;16.68;60.63
56400;BME280;42298;53.638;9.876;2023-03-22T08:46:39;100302.56;;;16.50;59.66
56400;BME280;42298;53.638;9.876;2023-03-22T08:49:05;100309.63;;;16.32;59.13
56400;BME280;42298;53.638;9.876;2023-03-22T08:51:30;100309.88;;;16.43;59.91
56400;BME280;42298;53.638;9.876;2023-03-22T08:53:56;100301.91;;;16.26;59.89
56400;BME280;42298;53.638;9.876;2023-03-22T08:56:23;100296.63;;;16.36;60.54
56400;BME280;42298;53.638;9.876;2023-03-22T08:58:51;100307.56;;;16.45;60.22
56400;BME280;42298;53.638;9.876;2023-03-22T09:01:17;100290.03;;;16.91;60.08
56400;BME280;42298;53.638;9.876;2023-03-22T09:03:45;100288.00;;;17.07;58.25
56400;BME280;42298;53.638;9.876;2023-03-22T09:06:11;100299.25;;;17.30;57.71
56400;BME280;42298;53.638;9.876;2023-03-22T09:08:39;100298.22;;;17.76;56.96
56400;BME280;42298;53.638;9.876;2023-03-22T09:11:10;100297.09;;;17.99;56.34
56400;BME280;42298;53.638;9.876;2023-03-22T09:13:36;100306.38;;;18.07;56.45
56400;BME280;42298;53.638;9.876;2023-03-22T09:16:03;100292.81;;;18.05;55.82
56400;BME280;42298;53.638;9.876;2023-03-22T09:18:29;100295.22;;;18.07;56.46
56400;BME280;42298;53.638;9.876;2023-03-22T09:20:54;100296.28;;;17.99;55.79
56400;BME280;42298;53.638;9.876;2023-03-22T09:23:21;100286.72;;;17.77;56.49
56400;BME280;42298;53.638;9.876;2023-03-22T09:25:48;100289.66;;;17.65;56.31
56400;BME280;42298;53.638;9.876;2023-03-22T09:28:14;100280.72;;;17.56;56.23
56400;BME280;42298;53.638;9.876;2023-03-22T09:30:41;100293.69;;;17.49;57.14
56400;BME280;42298;53.638;9.876;2023-03-22T09:33:08;100273.59;;;17.40;57.03
56400;BME280;42298;53.638;9.876;2023-03-22T09:35:33;100282.13;;;17.47;57.53
56400;BME280;42298;53.638;9.876;2023-03-22T09:37:59;100284.00;;;17.62;56.58
56400;BME280;42298;53.638;9.876;2023-03-22T09:40:30;100273.34;;;17.45;56.96
56400;BME280;42298;53.638;9.876;2023-03-22T09:42:59;100285.03;;;17.35;56.73
56400;BME280;42298;53.638;9.876;2023-03-22T09:45:36;100266.28;;;17.32;57.33
56400;BME280;42298;53.638;9.876;2023-03-22T09:48:13;100276.66;;;17.15;56.47
56400;BME280;42298;53.638;9.876;2023-03-22T09:50:46;100276.88;;;17.26;56.94
56400;BME280;42298;53.638;9.876;2023-03-22T09:53:14;100267.03;;;17.48;56.25
56400;BME280;42298;53.638;9.876;2023-03-22T09:58:21;100269.34;;;17.65;55.81
56400;BME280;42298;53.638;9.876;2023-03-22T10:01:05;100249.50;;;17.66;55.69
56400;BME280;42298;53.638;9.876;2023-03-22T10:06:23;100264.53;;;17.62;55.67
56400;BME280;42298;53.638;9.876;2023-03-22T10:09:09;100259.09;;;17.69;55.80
56400;BME280;42298;53.638;9.876;2023-03-22T10:11:41;100258.94;;;17.62;54.68
56400;BME280;42298;53.638;9.876;2023-03-22T10:17:00;100258.94;;;17.62;53.95
56400;BME280;42298;53.638;9.876;2023-03-22T10:19:37;100261.41;;;17.44;54.37
56400;BME280;42298;53.638;9.876;2023-03-22T10:22:09;100255.72;;;17.22;54.46
56400;BME280;42298;53.638;9.876;2023-03-22T10:24:38;100274.19;;;17.30;54.31
56400;BME280;42298;53.638;9.876;2023-03-22T10:27:18;100263.19;;;17.37;54.78
56400;BME280;42298;53.638;9.876;2023-03-22T10:29:52;100266.13;;;17.25;54.51
56400;BME280;42298;53.638;9.876;2023-03-22T10:34:55;100269.66;;;17.41;55.25
56400;BME280;42298;53.638;9.876;2023-03-22T10:37:28;100273.25;;;17.60;55.41
56400;BME280;42298;53.638;9.876;2023-03-22T10:39:59;100274.34;;;17.75;54.68
56400;BME280;42298;53.638;9.876;2023-03-22T10:42:27;100260.59;;;17.63;53.80
56400;BME280;42298;53.638;9.876;2023-03-22T10:45:25;100254.72;;;17.49;54.12
56400;BME280;42298;53.638;9.876;2023-03-22T10:48:05;100267.09;;;17.51;53.10
56400;BME280;42298;53.638;9.876;2023-03-22T10:50:35;100251.03;;;17.64;52.94
56400;BME280;42298;53.638;9.876;2023-03-22T10:53:05;100268.13;;;17.62;53.50
56400;BME280;42298;53.638;9.876;2023-03-22T10:55:40;100272.81;;;17.58;52.25
56400;BME280;42298;53.638;9.876;2023-03-22T10:58:19;100273.56;;;17.55;52.72
56400;BME280;42298;53.638;9.876;2023-03-22T11:00:50;100258.91;;;17.58;52.96
56400;BME280;42298;53.638;9.876;2023-03-22T11:08:46;100255.25;;;17.77;51.95
56400;BME280;42298;53.638;9.876;2023-03-22T11:11:29;100262.75;;;17.73;51.77
56400;BME280;42298;53.638;9.876;2023-03-22T11:14:12;100263.78;;;18.06;52.44
56400;BME280;42298;53.638;9.876;2023-03-22T11:16:59;100266.22;;;18.08;50.71
56400;BME280;42298;53.638;9.876;2023-03-22T11:19:27;100276.34;;;17.97;51.78
56400;BME280;42298;53.638;9.876;2023-03-22T11:21:54;100272.75;;;17.96;51.55
56400;BME280;42298;53.638;9.876;2023-03-22T11:24:24;100283.59;;;18.01;51.11
56400;BME280;42298;53.638;9.876;2023-03-22T11:29:40;100285.09;;;18.18;51.11
56400;BME280;42298;53.638;9.876;2023-03-22T11:32:26;100283.41;;;18.13;51.62
56400;BME280;42298;53.638;9.876;2023-03-22T11:37:53;100277.00;;;17.90;51.71
56400;BME280;42298;53.638;9.876;2023-03-22T11:40:23;100291.25;;;17.66;51.71
56400;BME280;42298;53.638;9.876;2023-03-22T11:42:54;100275.25;;;17.60;51.67
56400;BME280;42298;53.638;9.876;2023-03-22T11:45:27;100260.88;;;17.58;52.54
56400;BME280;42298;53.638;9.876;2023-03-22T11:47:59;100275.44;;;17.51;50.32
56400;BME280;42298;53.638;9.876;2023-03-22T11:50:30;100257.34;;;17.23;50.32
56400;BME280;42298;53.638;9.876;2023-03-22T11:52:56;100244.06;;;17.35;52.08
56400;BME280;42298;53.638;9.876;2023-03-22T11:55:23;100265.03;;;17.67;50.19
56400;BME280;42298;53.638;9.876;2023-03-22T11:57:49;100248.53;;;17.59;50.57
56400;BME280;42298;53.638;9.876;2023-03-22T12:00:25;100265.69;;;17.61;50.15
56400;BME280;42298;53.638;9.876;2023-03-22T12:03:04;100256.84;;;17.55;50.08
56400;BME280;42298;53.638;9.876;2023-03-22T12:05:32;100238.34;;;17.44;50.69
56400;BME280;42298;53.638;9.876;2023-03-22T12:08:12;100245.91;;;17.47;50.64
56400;BME280;42298;53.638;9.876;2023-03-22T12:10:43;100253.16;;;17.51;50.90
56400;BME280;42298;53.638;9.876;2023-03-22T12:13:27;100242.25;;;17.43;50.32
56400;BME280;42298;53.638;9.876;2023-03-22T12:15:59;100247.91;;;17.46;51.39
56400;BME280;42298;53.638;9.876;2023-03-22T12:18:59;100242.59;;;17.41;49.71
56400;BME280;42298;53.638;9.876;2023-03-22T12:21:27;100241.88;;;17.25;50.39
56400;BME280;42298;53.638;9.876;2023-03-22T12:23:58;100258.72;;;17.32;50.91
56400;BME280;42298;53.638;9.876;2023-03-22T12:26:27;100249.22;;;17.33;51.03
56400;BME280;42298;53.638;9.876;2023-03-22T12:29:04;100246.84;;;17.35;50.72
56400;BME280;42298;53.638;9.876;2023-03-22T12:31:35;100248.56;;;17.21;51.35
56400;BME280;42298;53.638;9.876;2023-03-22T12:34:16;100238.00;;;17.10;51.62
56400;BME280;42298;53.638;9.876;2023-03-22T12:36:47;100249.41;;;17.25;51.79
56400;BME280;42298;53.638;9.876;2023-03-22T12:39:36;100248.13;;;17.38;52.36
56400;BME280;42298;53.638;9.876;2023-03-22T12:42:10;100239.78;;;17.38;53.48
56400;BME280;42298;53.638;9.876;2023-03-22T12:44:40;100228.09;;;17.32;53.68
56400;BME280;42298;53.638;9.876;2023-03-22T12:47:31;100251.47;;;17.28;54.20
56400;BME280;42298;53.638;9.876;2023-03-22T12:50:10;100247.97;;;17.31;55.44
56400;BME280;42298;53.638;9.876;2023-03-22T12:52:43;100242.69;;;17.06;55.76
56400;BME280;42298;53.638;9.876;2023-03-22T12:57:48;100251.47;;;16.89;56.85
56400;BME280;42298;53.638;9.876;2023-03-22T13:00:17;100256.34;;;16.61;56.49
56400;BME280;42298;53.638;9.876;2023-03-22T13:02:58;100263.19;;;16.48;57.63
56400;BME280;42298;53.638;9.876;2023-03-22T13:05:31;100269.63;;;16.37;58.49
56400;BME280;42298;53.638;9.876;2023-03-22T13:07:57;100264.63;;;16.11;58.53
56400;BME280;42298;53.638;9.876;2023-03-22T13:16:00;100276.63;;;16.00;60.77
56400;BME280;42298;53.638;9.876;2023-03-22T13:21:14;100263.25;;;15.74;60.69
56400;BME280;42298;53.638;9.876;2023-03-22T13:26:51;100275.84;;;15.72;60.83
56400;BME280;42298;53.638;9.876;2023-03-22T13:29:22;100269.50;;;15.71;61.00
56400;BME280;42298;53.638;9.876;2023-03-22T13:31:53;100269.94;;;15.73;61.97
56400;BME280;42298;53.638;9.876;2023-03-22T13:34:37;100262.31;;;15.70;61.74
56400;BME280;42298;53.638;9.876;2023-03-22T13:37:31;100267.16;;;15.58;60.87
56400;BME280;42298;53.638;9.876;2023-03-22T13:40:00;100252.16;;;15.47;62.04
56400;BME280;42298;53.638;9.876;2023-03-22T13:42:40;100266.09;;;15.62;60.85
56400;BME280;42298;53.638;9.876;2023-03-22T13:45:27;100250.97;;;15.48;60.78
56400;BME280;42298;53.638;9.876;2023-03-22T13:48:28;100271.00;;;15.69;61.01
56400;BME280;42298;53.638;9.876;2023-03-22T13:50:56;100266.38;;;15.73;61.29
56400;BME280;42298;53.638;9.876;2023-03-22T13:53:28;100252.44;;;15.57;60.13
56400;BME280;42298;53.638;9.876;2023-03-22T13:58:35;100264.84;;;15.75;61.01
56400;BME280;42298;53.638;9.876;2023-03-22T14:01:11;100250.06;;;15.71;60.32
56400;BME280;42298;53.638;9.876;2023-03-22T14:03:40;100268.97;;;15.81;60.59
56400;BME280;42298;53.638;9.876;2023-03-22T14:06:13;100282.09;;;15.96;61.02
56400;BME280;42298;53.638;9.876;2023-03-22T14:08:42;100270.50;;;15.79;59.56
56400;BME280;42298;53.638;9.876;2023-03-22T14:11:21;100267.78;;;15.67;60.59
56400;BME280;42298;53.638;9.876;2023-03-22T14:14:17;100268.69;;;15.71;60.00
56400;BME280;42298;53.638;9.876;2023-03-22T14:17:01;100273.63;;;15.77;60.10
56400;BME280;42298;53.638;9.876;2023-03-22T14:19:30;100273.94;;;15.60;58.88